ENFA weather

Public forecast

Using degrees Celsius for public forecast. Weather courtesy of forecast.io.

Closest aviation weather report (METAR) to Flatval Airport

Closest report is Ørland Airport, 22.4 nm (41.6 km) E. Retrieved 2020/08/14 06:20 UTC (40 minutes ago):

ENOL 140620Z 22004KT 9999 SCT007 BKN014 14/13 Q1014 TEMPO 2000 -DZ BR BKN004

Closest aviation forecast (TAF) to Flatval Airport

Closest forecast is Ørland Airport, 22.4 nm (41.6 km) E. Retrieved 2020/08/14 06:57 UTC (3 minutes ago):

TAF ENOL 140500Z 1406/1506 27008KT 9999 SCT007 BKN015 TEMPO 1406/1408 2000 -DZ BR BKN004 TEMPO 1408/1412 BKN008 BECMG 1503/1506 BKN012